Time;durP1;ratioP1;P1;durP2;ratioP2;P2;SDS_P1;SDS_P2;PMS_P1;PMS_P2;Temp;Humidity;BMP_temperature;BMP_pressure;BME280_temperature;BME280_humidity;BME280_pressure;Samples;Min_cycle;Max_cycle;Signal;HPM_P1;HPM_P2
2023/04/30 00:01:41;;;;;;;0.03;0.03;;;;;;;7.95;91.13;100921.84;6223920;23;20095;-74
2023/04/30 00:04:17;;;;;;;;;;;;;;;;;;;;;
2023/04/30 00:06:44;;;;;;;0.00;0.00;;;;;;;7.92;91.12;100919.59;6244238;23;20122;-75
2023/04/30 00:09:15;;;;;;;0.00;0.00;;;;;;;7.78;91.42;100903.47;6220401;23;20000;-76
2023/04/30 00:11:40;;;;;;;0.00;0.00;;;;;;;7.88;90.78;100911.03;6188034;23;20012;-75
2023/04/30 00:14:08;;;;;;;0.00;0.00;;;;;;;7.89;90.99;100914.63;6193747;23;20086;-75
2023/04/30 00:16:34;;;;;;;0.00;0.00;;;;;;;7.99;90.90;100931.19;6232161;23;20003;-75
2023/04/30 00:18:59;;;;;;;0.00;0.00;;;;;;;7.86;90.49;100922.16;6242650;23;20004;-75
2023/04/30 00:21:25;;;;;;;0.00;0.00;;;;;;;7.84;90.74;100927.03;6187618;23;20007;-75
2023/04/30 00:23:53;;;;;;;0.00;0.00;;;;;;;7.82;90.71;100928.34;6213718;23;20276;-76
2023/04/30 00:26:18;;;;;;;0.00;0.00;;;;;;;7.75;90.63;100922.16;6213341;23;20060;-76
2023/04/30 00:28:43;;;;;;;0.08;0.08;;;;;;;7.66;90.27;100919.78;6161338;23;20335;-77
2023/04/30 00:31:09;;;;;;;0.00;0.00;;;;;;;7.63;90.73;100920.25;6242536;22;20078;-76
2023/04/30 00:33:34;;;;;;;0.00;0.00;;;;;;;7.61;91.20;100922.38;6208491;23;20438;-76
2023/04/30 00:36:00;;;;;;;0.00;0.00;;;;;;;7.59;91.15;100923.69;6187097;23;20004;-75
2023/04/30 00:38:25;;;;;;;0.00;0.00;;;;;;;7.60;91.21;100920.72;6190727;23;20004;-75
2023/04/30 00:40:51;;;;;;;0.00;0.00;;;;;;;7.56;91.40;100921.44;6235427;23;20012;-76
2023/04/30 00:43:16;;;;;;;0.00;0.00;;;;;;;7.59;91.04;100929.13;6191026;23;20319;-75
2023/04/30 00:45:42;;;;;;;0.00;0.00;;;;;;;7.58;90.96;100924.72;6181611;23;20016;-78
2023/04/30 00:48:08;;;;;;;0.00;0.00;;;;;;;7.57;91.03;100920.38;6186939;23;20390;-77
2023/04/30 00:50:35;;;;;;;0.00;0.00;;;;;;;7.54;91.32;100910.78;6207900;23;20099;-77
2023/04/30 00:53:01;;;;;;;0.00;0.00;;;;;;;7.58;90.95;100922.00;6214714;23;20000;-77
2023/04/30 00:55:27;;;;;;;0.00;0.00;;;;;;;7.49;91.11;100908.75;6186508;23;20019;-76
2023/04/30 00:57:58;;;;;;;0.00;0.00;;;;;;;7.46;91.20;100914.69;6208326;23;20027;-78
2023/04/30 01:00:24;;;;;;;0.00;0.00;;;;;;;7.49;91.33;100914.22;6213667;23;20010;-78
2023/04/30 01:02:50;;;;;;;0.00;0.00;;;;;;;7.45;91.14;100913.00;6182213;23;20094;-78
2023/04/30 01:05:15;;;;;;;0.00;0.00;;;;;;;7.42;91.25;100916.19;6186005;23;20011;-77
2023/04/30 01:07:44;;;;;;;0.00;0.00;;;;;;;7.35;91.65;100901.88;6198159;22;20081;-75
2023/04/30 01:10:13;;;;;;;0.00;0.00;;;;;;;7.35;91.54;100907.31;6241543;22;20037;-75
2023/04/30 01:12:48;;;;;;;0.00;0.00;;;;;;;7.22;91.27;100892.00;6242843;22;20002;-74
2023/04/30 01:15:37;;;;;;;0.00;0.00;;;;;;;7.27;91.65;100903.03;6266575;22;20004;-76
2023/04/30 01:18:12;;;;;;;0.00;0.00;;;;;;;7.23;91.83;100896.41;6253079;22;20003;-75
2023/04/30 01:20:47;;;;;;;0.00;0.00;;;;;;;7.12;91.91;100892.56;6266151;22;20024;-76
2023/04/30 01:23:31;;;;;;;0.00;0.00;;;;;;;7.12;91.71;100903.44;6242592;22;20004;-75
2023/04/30 01:26:08;;;;;;;0.00;0.00;;;;;;;7.09;91.95;100903.09;6236618;22;20011;-75
2023/04/30 01:28:35;;;;;;;0.00;0.00;;;;;;;7.03;92.44;100902.13;6271646;22;20050;-74
2023/04/30 01:31:01;;;;;;;0.00;0.00;;;;;;;7.03;92.12;100909.44;6238686;22;20038;-75
2023/04/30 01:33:26;;;;;;;0.00;0.00;;;;;;;6.93;91.62;100889.06;6194148;22;20039;-74
2023/04/30 01:36:03;;;;;;;0.00;0.00;;;;;;;6.96;91.99;100901.38;6238903;22;20012;-75
2023/04/30 01:38:51;;;;;;;0.00;0.00;;;;;;;6.94;92.24;100896.16;6243897;22;20003;-74
2023/04/30 01:41:35;;;;;;;0.00;0.00;;;;;;;6.95;91.41;100907.88;6236143;22;20027;-75
2023/04/30 01:44:15;;;;;;;0.00;0.00;;;;;;;6.91;91.65;100901.25;6269606;22;20003;-75
2023/04/30 01:46:48;;;;;;;0.00;0.00;;;;;;;6.85;91.98;100902.16;6243540;22;20090;-74
2023/04/30 01:49:45;;;;;;;0.00;0.00;;;;;;;6.86;92.02;100909.25;6240552;22;20008;-75
2023/04/30 01:52:36;;;;;;;0.00;0.00;;;;;;;6.87;92.54;100905.50;6243316;22;20005;-74
2023/04/30 01:55:11;;;;;;;0.00;0.00;;;;;;;6.85;92.58;100913.03;6238525;22;20007;-74
2023/04/30 01:57:40;;;;;;;0.00;0.00;;;;;;;6.82;91.83;100904.28;6244097;22;20007;-74
2023/04/30 02:00:10;;;;;;;0.00;0.00;;;;;;;6.78;91.49;100891.38;6239561;22;20477;-74
2023/04/30 02:02:36;;;;;;;0.00;0.00;;;;;;;6.80;91.75;100898.25;6219330;22;20015;-74
2023/04/30 02:05:01;;;;;;;0.00;0.00;;;;;;;6.77;92.74;100887.00;6187575;22;20003;-75
2023/04/30 02:07:45;;;;;;;0.00;0.00;;;;;;;6.79;92.76;100904.75;6218691;22;20043;-74
2023/04/30 02:10:11;;;;;;;0.00;0.00;;;;;;;6.81;92.18;100908.03;6238154;22;20075;-74
2023/04/30 02:12:38;;;;;;;0.00;0.00;;;;;;;6.82;92.22;100908.91;6269613;22;20000;-75
2023/04/30 02:15:05;;;;;;;0.00;0.00;;;;;;;6.77;92.67;100895.16;6238549;22;20035;-74
2023/04/30 02:17:31;;;;;;;0.00;0.00;;;;;;;6.82;92.52;100898.84;6242394;22;20015;-74
2023/04/30 02:19:56;;;;;;;0.00;0.00;;;;;;;6.85;92.89;100908.44;6218681;22;20069;-75
2023/04/30 02:22:22;;;;;;;0.00;0.00;;;;;;;6.78;93.11;100903.06;6242246;22;20000;-75
2023/04/30 02:24:48;;;;;;;0.00;0.00;;;;;;;6.78;92.90;100903.06;6217301;22;20007;-74
2023/04/30 02:27:14;;;;;;;0.00;0.00;;;;;;;6.74;92.75;100896.44;6217952;22;21138;-74
2023/04/30 02:29:39;;;;;;;0.00;0.00;;;;;;;6.72;92.73;100901.28;6246032;22;20027;-74
2023/04/30 02:32:05;;;;;;;0.00;0.00;;;;;;;6.74;93.28;100901.88;6215450;22;20008;-74
2023/04/30 02:34:30;;;;;;;0.00;0.00;;;;;;;6.73;93.93;100899.38;6221709;22;20008;-74
2023/04/30 02:36:56;;;;;;;0.00;0.00;;;;;;;6.69;93.47;100888.16;6243174;22;20493;-75
2023/04/30 02:39:21;;;;;;;0.00;0.00;;;;;;;6.73;93.51;100910.25;6215990;22;20065;-75
2023/04/30 02:41:46;;;;;;;0.00;0.00;;;;;;;6.71;93.62;100906.94;6195515;22;20449;-75
2023/04/30 02:44:12;;;;;;;0.00;0.00;;;;;;;6.71;94.00;100904.22;6215225;22;20007;-75
2023/04/30 02:46:37;;;;;;;0.00;0.00;;;;;;;6.69;94.06;100903.59;6272797;22;20000;-74
2023/04/30 02:49:03;;;;;;;0.00;0.00;;;;;;;6.69;93.95;100896.31;6243707;22;20081;-75
2023/04/30 02:51:28;;;;;;;0.00;0.00;;;;;;;6.73;93.53;100908.38;6195554;22;20014;-76
2023/04/30 02:53:54;;;;;;;0.00;0.00;;;;;;;6.69;94.22;100901.75;6220751;22;20010;-74
2023/04/30 02:56:20;;;;;;;0.00;0.00;;;;;;;6.65;94.03;100900.53;6213890;22;20012;-74
2023/04/30 02:58:47;;;;;;;0.00;0.00;;;;;;;6.64;93.61;100901.56;6245804;22;20495;-76
2023/04/30 03:01:14;;;;;;;0.00;0.00;;;;;;;6.62;94.60;100907.25;6238554;22;20445;-77
2023/04/30 03:03:40;;;;;;;0.00;0.00;;;;;;;6.59;94.48;100898.72;6246386;22;20012;-76
2023/04/30 03:06:05;;;;;;;0.00;0.00;;;;;;;6.55;94.57;100901.06;6240774;22;20332;-76
2023/04/30 03:08:31;;;;;;;0.00;0.00;;;;;;;6.51;94.21;100893.59;6244806;22;20411;-76
2023/04/30 03:10:56;;;;;;;0.00;0.00;;;;;;;6.54;93.98;100893.13;6241184;22;20041;-76
2023/04/30 03:13:24;;;;;;;0.10;0.10;;;;;;;6.52;94.27;100895.25;6214526;22;20095;-76
2023/04/30 03:15:56;;;;;;;0.00;0.00;;;;;;;6.45;94.74;100890.75;6273092;22;20082;-77
2023/04/30 03:18:22;;;;;;;0.00;0.00;;;;;;;6.43;94.71;100889.31;6237452;22;20418;-76
2023/04/30 03:20:47;;;;;;;0.00;0.00;;;;;;;6.41;94.39;100881.38;6240778;22;20006;-76
2023/04/30 03:23:12;;;;;;;0.00;0.00;;;;;;;6.37;94.04;100874.75;6219086;22;20004;-76
2023/04/30 03:25:38;;;;;;;0.00;0.00;;;;;;;6.43;94.83;100890.13;6214029;22;20312;-76
2023/04/30 03:28:04;;;;;;;0.00;0.00;;;;;;;6.39;94.12;100877.22;6222017;22;20099;-76
2023/04/30 03:30:29;;;;;;;0.10;0.10;;;;;;;6.38;94.43;100881.00;6189041;22;20015;-76
2023/04/30 03:32:54;;;;;;;0.00;0.00;;;;;;;6.34;94.14;100880.63;6218670;22;20008;-75
2023/04/30 03:35:20;;;;;;;0.00;0.00;;;;;;;6.31;93.79;100883.81;6194962;22;20007;-76
2023/04/30 03:37:45;;;;;;;0.00;0.00;;;;;;;6.31;94.77;100883.81;6241134;22;20363;-75
2023/04/30 03:40:11;;;;;;;0.00;0.00;;;;;;;6.28;94.88;100876.09;6191360;22;20000;-75
2023/04/30 03:42:37;;;;;;;0.00;0.00;;;;;;;6.22;94.76;100877.00;6263736;22;20374;-76
2023/04/30 03:45:03;;;;;;;0.00;0.00;;;;;;;6.15;94.75;100873.50;6216481;22;20008;-76
2023/04/30 03:47:28;;;;;;;0.00;0.00;;;;;;;6.08;94.33;100873.59;6212918;22;20007;-76
2023/04/30 03:49:54;;;;;;;0.00;0.00;;;;;;;6.07;94.61;100880.91;6202883;22;20010;-75
2023/04/30 03:52:21;;;;;;;0.00;0.00;;;;;;;6.03;94.46;100874.28;6242084;22;20019;-75
2023/04/30 03:54:46;;;;;;;0.00;0.00;;;;;;;5.97;94.67;100869.72;6240309;22;20333;-74
2023/04/30 03:57:12;;;;;;;0.00;0.00;;;;;;;5.90;94.97;100855.38;6214215;22;20034;-75
2023/04/30 03:59:39;;;;;;;0.00;0.00;;;;;;;5.97;95.11;100875.16;6238929;22;20056;-74
2023/04/30 04:02:07;;;;;;;0.00;0.00;;;;;;;5.92;94.89;100866.84;6244638;22;19999;-74
2023/04/30 04:04:34;;;;;;;0.00;0.00;;;;;;;5.96;95.15;100881.63;6238205;22;20007;-75
2023/04/30 04:07:01;;;;;;;0.10;0.10;;;;;;;5.90;94.41;100877.09;6220339;22;20012;-75
2023/04/30 04:09:27;;;;;;;0.00;0.00;;;;;;;5.93;95.19;100876.66;6215138;22;20007;-76
2023/04/30 04:11:52;;;;;;;0.00;0.00;;;;;;;5.90;94.80;100874.38;6217705;22;20083;-75
2023/04/30 04:14:17;;;;;;;0.00;0.00;;;;;;;5.94;95.02;100886.44;6218053;22;20011;-75
2023/04/30 04:16:43;;;;;;;0.00;0.00;;;;;;;5.94;94.27;100875.56;6240148;22;20015;-74
2023/04/30 04:19:09;;;;;;;0.00;0.00;;;;;;;5.92;95.26;100874.97;6193754;22;20007;-75
2023/04/30 04:21:35;;;;;;;0.00;0.00;;;;;;;5.86;95.14;100863.13;6245370;22;20322;-75
2023/04/30 04:24:07;;;;;;;0.00;0.00;;;;;;;5.94;95.02;100875.56;6214540;22;20004;-75
2023/04/30 04:26:33;;;;;;;0.00;0.00;;;;;;;5.99;95.16;100880.38;6244323;22;20012;-75
2023/04/30 04:28:58;;;;;;;0.00;0.00;;;;;;;6.03;94.98;100862.56;6214310;22;20015;-75
2023/04/30 04:31:23;;;;;;;0.00;0.00;;;;;;;6.34;94.49;100879.78;6193657;22;20046;-75
2023/04/30 04:33:58;;;;;;;0.00;0.00;;;;;;;6.61;94.27;100885.72;6189538;22;20011;-75
2023/04/30 04:36:26;;;;;;;0.00;0.00;;;;;;;6.78;93.65;100875.06;6221930;22;20075;-75
2023/04/30 04:38:52;;;;;;;0.00;0.00;;;;;;;6.99;92.46;100873.72;6214637;22;20699;-75
2023/04/30 04:41:18;;;;;;;0.00;0.00;;;;;;;7.12;92.09;100859.91;6218833;22;20418;-75
2023/04/30 04:43:43;;;;;;;0.00;0.00;;;;;;;7.35;91.51;100880.09;6244212;22;20003;-76
2023/04/30 04:46:09;;;;;;;0.00;0.00;;;;;;;7.55;91.47;100890.66;6238895;22;20008;-74
2023/04/30 04:48:34;;;;;;;0.00;0.00;;;;;;;7.70;91.63;100892.94;6244664;22;20049;-74
2023/04/30 04:51:00;;;;;;;0.00;0.00;;;;;;;7.76;90.98;100883.81;6214551;22;20012;-75
2023/04/30 04:53:25;;;;;;;0.00;0.00;;;;;;;7.85;90.91;100882.38;6193748;22;20033;-75
2023/04/30 04:55:51;;;;;;;0.00;0.00;;;;;;;7.94;90.98;100888.31;6240857;22;20012;-74
2023/04/30 04:58:16;;;;;;;0.00;0.00;;;;;;;8.06;90.69;100887.47;6270369;22;20006;-74
2023/04/30 05:00:43;;;;;;;0.10;0.10;;;;;;;8.02;90.49;100873.53;6218075;22;20377;-75
2023/04/30 05:03:09;;;;;;;0.00;0.00;;;;;;;8.19;90.93;100879.06;6213867;22;20004;-76
2023/04/30 05:05:34;;;;;;;0.00;0.00;;;;;;;8.24;90.42;100871.00;6244129;22;20012;-75
2023/04/30 05:08:00;;;;;;;0.00;0.00;;;;;;;8.35;90.47;100872.88;6238049;22;20023;-75
2023/04/30 05:10:25;;;;;;;0.00;0.00;;;;;;;8.41;90.47;100884.72;6220549;22;20018;-77
2023/04/30 05:12:51;;;;;;;0.00;0.00;;;;;;;8.39;90.69;100867.78;6243667;22;20007;-78
2023/04/30 05:15:16;;;;;;;0.00;0.00;;;;;;;8.47;90.33;100859.25;6188416;22;20039;-78
2023/04/30 05:17:41;;;;;;;0.00;0.00;;;;;;;8.57;90.26;100874.97;6244612;22;20018;-78
2023/04/30 05:20:08;;;;;;;0.03;0.03;;;;;;;8.54;89.96;100872.72;6240144;22;20434;-78
2023/04/30 05:22:33;;;;;;;0.00;0.00;;;;;;;8.50;90.71;100869.69;6217808;22;20019;-78
2023/04/30 05:24:59;;;;;;;0.00;0.00;;;;;;;8.47;90.70;100870.16;6218841;22;20011;-78
2023/04/30 05:27:25;;;;;;;0.00;0.00;;;;;;;8.44;91.45;100878.81;6188926;22;19999;-77
2023/04/30 05:29:51;;;;;;;0.00;0.00;;;;;;;8.48;91.52;100871.78;6218162;22;20030;-78
2023/04/30 05:32:16;;;;;;;0.00;0.00;;;;;;;8.53;90.77;100874.63;6214246;22;20426;-78
2023/04/30 05:34:42;;;;;;;0.00;0.00;;;;;;;8.57;91.17;100874.97;6193532;22;20011;-77
2023/04/30 05:37:07;;;;;;;0.00;0.00;;;;;;;8.64;91.15;100874.84;6239146;22;20438;-78
2023/04/30 05:39:32;;;;;;;0.00;0.00;;;;;;;8.64;91.61;100875.66;6218108;22;20007;-78
2023/04/30 05:41:58;;;;;;;0.00;0.00;;;;;;;8.66;91.05;100867.25;6242776;22;20008;-77
2023/04/30 05:44:23;;;;;;;0.00;0.00;;;;;;;8.79;91.25;100879.75;6214725;22;20034;-77
2023/04/30 05:46:49;;;;;;;0.00;0.00;;;;;;;8.89;91.19;100885.41;6243479;22;20799;-77
2023/04/30 05:49:15;;;;;;;0.00;0.00;;;;;;;8.99;91.00;100876.59;6215287;22;20593;-77
2023/04/30 05:51:40;;;;;;;0.00;0.00;;;;;;;9.20;90.69;100886.81;6217268;22;20319;-77
2023/04/30 05:54:05;;;;;;;0.00;0.00;;;;;;;9.36;90.19;100887.94;6190223;22;20000;-76
2023/04/30 05:56:31;;;;;;;0.00;0.00;;;;;;;9.40;89.99;100883.63;6217401;22;20011;-77
2023/04/30 05:58:56;;;;;;;0.00;0.00;;;;;;;9.51;89.67;100890.09;6218479;22;20436;-78
2023/04/30 06:01:22;;;;;;;0.00;0.00;;;;;;;9.59;89.34;100895.13;6216572;22;20090;-77
2023/04/30 06:03:48;;;;;;;0.00;0.00;;;;;;;9.71;88.99;100903.25;6220173;22;20012;-77
2023/04/30 06:06:13;;;;;;;0.00;0.00;;;;;;;9.75;89.25;100896.22;6269070;22;20000;-77
2023/04/30 06:08:43;;;;;;;0.00;0.00;;;;;;;9.77;88.84;100895.97;6245190;22;20026;-76
2023/04/30 06:11:09;;;;;;;0.00;0.00;;;;;;;9.89;88.28;100896.69;6243634;22;20095;-76
2023/04/30 06:13:35;;;;;;;0.05;0.05;;;;;;;9.92;88.08;100901.66;6190813;22;20334;-77
2023/04/30 06:16:01;;;;;;;0.00;0.00;;;;;;;9.76;88.24;100902.50;6196576;22;20004;-76
2023/04/30 06:18:26;;;;;;;0.00;0.00;;;;;;;9.75;89.00;100906.28;6239785;22;20083;-77
2023/04/30 06:20:52;;;;;;;0.00;0.00;;;;;;;9.75;89.47;100898.09;6221450;22;20488;-77
2023/04/30 06:23:17;;;;;;;0.00;0.00;;;;;;;9.90;89.23;100902.97;6219877;22;20049;-78
2023/04/30 06:25:43;;;;;;;0.00;0.00;;;;;;;10.02;88.82;100903.72;6216590;22;20049;-78
2023/04/30 06:28:08;;;;;;;0.00;0.00;;;;;;;10.07;87.67;100903.78;6195609;22;20012;-77
2023/04/30 06:30:35;;;;;;;0.00;0.00;;;;;;;10.08;87.94;100904.63;6215619;22;20042;-77
2023/04/30 06:33:01;;;;;;;0.00;0.00;;;;;;;10.16;88.18;100904.19;6244788;22;20007;-77
2023/04/30 06:35:26;;;;;;;0.00;0.00;;;;;;;10.38;87.87;100911.63;6216103;22;20018;-78
2023/04/30 06:37:52;;;;;;;0.00;0.00;;;;;;;10.45;86.79;100915.00;6244255;22;20442;-77
2023/04/30 06:40:30;;;;;;;;;;;;;;;;;;;;;
2023/04/30 06:42:55;;;;;;;0.00;0.00;;;;;;;10.90;86.28;100905.69;6246390;22;20074;-77
2023/04/30 06:45:23;;;;;;;0.00;0.00;;;;;;;10.99;85.40;100893.22;6245679;22;20054;-76
2023/04/30 06:47:53;;;;;;;0.00;0.00;;;;;;;11.20;84.53;100898.06;6246975;22;20061;-78
2023/04/30 06:50:20;;;;;;;0.00;0.00;;;;;;;11.36;84.00;100897.16;6251062;22;20426;-76
2023/04/30 06:52:48;;;;;;;0.00;0.00;;;;;;;11.40;83.25;100891.97;6273596;22;20322;-77
2023/04/30 06:55:21;;;;;;;0.00;0.00;;;;;;;11.57;83.06;100917.31;6250242;22;20011;-77
2023/04/30 06:57:49;;;;;;;0.00;0.00;;;;;;;11.46;82.42;100907.34;6223613;22;20098;-77
2023/04/30 07:00:24;;;;;;;;;;;;;;;;;;;;;
2023/04/30 07:02:50;;;;;;;0.00;0.00;;;;;;;11.24;82.76;100916.44;6269323;22;20118;-76
2023/04/30 07:05:16;;;;;;;0.00;0.00;;;;;;;11.28;83.07;100906.63;6198117;22;20046;-76
2023/04/30 07:07:42;;;;;;;0.00;0.00;;;;;;;11.32;82.60;100913.25;6248595;22;20027;-75
2023/04/30 07:10:07;;;;;;;0.00;0.00;;;;;;;11.18;82.45;100888.22;6223821;22;20008;-77
2023/04/30 07:12:33;;;;;;;0.00;0.00;;;;;;;11.53;82.53;100918.91;6225657;22;20039;-77
2023/04/30 07:15:16;;;;;;;0.00;0.00;;;;;;;11.66;81.78;100902.03;6197477;22;20330;-75
2023/04/30 07:17:50;;;;;;;0.00;0.00;;;;;;;11.89;81.00;100905.50;6249826;22;20007;-77
2023/04/30 07:20:15;;;;;;;;;;;;;;;12.30;80.59;100925.00;6249671;22;20007;-76
2023/04/30 07:22:44;;;;;;;0.00;0.00;;;;;;;12.56;79.21;100904.00;6249662;22;20298;-76
2023/04/30 07:25:11;;;;;;;0.00;0.00;;;;;;;12.61;78.16;100911.44;6247326;22;20390;-75
2023/04/30 07:27:42;;;;;;;0.00;0.00;;;;;;;12.45;77.76;100896.00;6250973;22;20030;-77
2023/04/30 07:30:10;;;;;;;0.00;0.00;;;;;;;12.44;77.08;100900.69;6224302;22;20004;-77
2023/04/30 07:32:43;;;;;;;0.00;0.00;;;;;;;12.24;77.64;100912.34;6245537;22;20011;-78
2023/04/30 07:35:12;;;;;;;0.00;0.00;;;;;;;12.29;77.92;100897.84;6202388;22;20004;-78
2023/04/30 07:37:42;;;;;;;0.00;0.00;;;;;;;12.38;77.74;100886.09;6245812;22;20373;-78
2023/04/30 07:40:21;;;;;;;0.00;0.00;;;;;;;12.65;78.05;100906.25;6222337;22;20405;-77
2023/04/30 07:42:57;;;;;;;0.00;0.00;;;;;;;12.99;77.41;100912.13;6245780;22;20003;-77
2023/04/30 07:45:25;;;;;;;0.00;0.00;;;;;;;12.98;76.17;100895.91;6225348;22;20023;-77
2023/04/30 07:47:51;;;;;;;0.00;0.00;;;;;;;13.01;75.24;100898.13;6245527;22;20756;-78
2023/04/30 07:50:32;;;;;;;0.00;0.00;;;;;;;12.84;74.61;100899.16;6247514;22;20008;-77
2023/04/30 07:53:08;;;;;;;;;;;;;;;;;;;;;
2023/04/30 07:55:46;;;;;;;0.00;0.00;;;;;;;12.91;74.79;100887.94;6251017;22;20060;-76
2023/04/30 07:58:31;;;;;;;;;;;;;;;;;;;;;
2023/04/30 08:01:16;;;;;;;0.00;0.00;;;;;;;13.63;73.88;100918.28;6271501;22;20045;-76
2023/04/30 08:03:59;;;;;;;0.00;0.00;;;;;;;13.90;72.70;100903.44;6248609;22;20007;-75
2023/04/30 08:06:26;;;;;;;0.00;0.00;;;;;;;13.87;71.36;100896.59;6244468;22;20004;-76
2023/04/30 08:08:54;;;;;;;0.00;0.00;;;;;;;14.09;71.68;100896.25;6248450;22;20154;-77
2023/04/30 08:11:20;;;;;;;0.00;0.00;;;;;;;14.44;70.85;100930.28;6249570;22;20082;-78
2023/04/30 08:14:05;;;;;;;0.00;0.00;;;;;;;14.58;70.07;100911.25;6243621;22;20497;-78
2023/04/30 08:16:34;;;;;;;0.00;0.00;;;;;;;14.39;68.66;100897.28;6226084;22;20004;-77
2023/04/30 08:19:03;;;;;;;0.00;0.00;;;;;;;14.14;69.67;100910.00;6270646;22;19992;-76
2023/04/30 08:21:32;;;;;;;0.00;0.00;;;;;;;13.91;70.30;100905.91;6224415;22;20704;-78
2023/04/30 08:23:57;;;;;;;0.00;0.00;;;;;;;14.11;70.70;100921.53;6218410;22;20011;-78
2023/04/30 08:26:24;;;;;;;0.00;0.00;;;;;;;14.10;70.03;100902.59;6225486;22;20149;-75
2023/04/30 08:29:00;;;;;;;;;;;;;;;;;;;;;
2023/04/30 08:31:28;;;;;;;0.00;0.00;;;;;;;14.05;70.18;100903.41;6250265;22;20710;-76
2023/04/30 08:33:57;;;;;;;0.00;0.00;;;;;;;14.23;69.75;100901.19;6246593;22;20397;-76
2023/04/30 08:36:22;;;;;;;0.00;0.00;;;;;;;14.59;69.30;100917.59;6249585;22;20031;-77
2023/04/30 08:38:57;;;;;;;0.00;0.00;;;;;;;14.69;68.97;100909.31;6192673;22;20453;-77
2023/04/30 08:41:29;;;;;;;0.00;0.00;;;;;;;14.92;68.51;100898.72;6277004;22;20011;-78
2023/04/30 08:44:02;;;;;;;0.00;0.00;;;;;;;15.39;67.48;100900.09;6247525;22;20004;-78
2023/04/30 08:46:57;;;;;;;0.00;0.00;;;;;;;15.78;65.85;100893.72;6248629;22;20013;-78
2023/04/30 08:49:24;;;;;;;0.00;0.00;;;;;;;16.07;65.65;100890.16;6246064;22;20011;-77
2023/04/30 08:51:59;;;;;;;0.00;0.00;;;;;;;16.25;64.15;100904.31;6248327;22;20003;-78
2023/04/30 08:54:25;;;;;;;0.00;0.00;;;;;;;16.20;64.24;100903.25;6249316;22;20323;-76
2023/04/30 08:56:50;;;;;;;0.00;0.00;;;;;;;16.51;64.03;100916.69;6223828;22;20014;-78
2023/04/30 08:59:16;;;;;;;0.00;0.00;;;;;;;16.46;62.10;100883.66;6274635;22;20422;-77
2023/04/30 09:01:44;;;;;;;0.00;0.00;;;;;;;16.51;61.72;100886.34;6225267;22;20027;-77
2023/04/30 09:04:10;;;;;;;0.00;0.00;;;;;;;16.83;61.91;100909.69;6249079;22;20031;-78
2023/04/30 09:06:38;;;;;;;0.00;0.00;;;;;;;16.75;61.76;100874.47;6247200;22;20568;-76
2023/04/30 09:09:16;;;;;;;0.00;0.00;;;;;;;17.15;60.67;100899.88;6244080;22;20023;-77
2023/04/30 09:11:47;;;;;;;0.00;0.00;;;;;;;17.27;59.56;100886.44;6242154;22;20008;-78
2023/04/30 09:14:12;;;;;;;0.00;0.00;;;;;;;17.27;59.13;100903.03;6245323;23;20328;-78
2023/04/30 09:16:46;;;;;;;0.00;0.00;;;;;;;16.98;57.75;100899.56;6218523;23;20016;-78
2023/04/30 09:19:25;;;;;;;0.00;0.00;;;;;;;16.74;56.77;100900.41;6242613;23;20051;-77
2023/04/30 09:21:53;;;;;;;0.00;0.00;;;;;;;16.75;56.58;100902.06;6239738;23;20003;-77
2023/04/30 09:24:19;;;;;;;0.00;0.00;;;;;;;17.04;55.13;100898.38;6242814;23;20149;-76
2023/04/30 09:26:55;;;;;;;0.00;0.00;;;;;;;17.03;54.06;100902.28;6242023;23;20007;-76
2023/04/30 09:29:24;;;;;;;0.00;0.00;;;;;;;17.19;52.92;100895.41;6268265;22;20008;-76
2023/04/30 09:31:57;;;;;;;0.00;0.00;;;;;;;16.96;52.56;100890.78;6236380;23;20316;-74
2023/04/30 09:34:35;;;;;;;0.00;0.00;;;;;;;16.88;53.64;100890.31;6244711;22;20000;-75
2023/04/30 09:37:03;;;;;;;0.00;0.00;;;;;;;17.04;53.93;100893.69;6242635;23;20004;-75
2023/04/30 09:39:31;;;;;;;0.00;0.00;;;;;;;16.93;52.27;100886.66;6237819;23;20351;-75
2023/04/30 09:42:26;;;;;;;0.00;0.00;;;;;;;16.78;52.85;100898.72;6237034;22;20004;-76
2023/04/30 09:44:52;;;;;;;0.00;0.00;;;;;;;16.38;53.55;100882.38;6223931;23;20012;-76
2023/04/30 09:47:19;;;;;;;0.00;0.00;;;;;;;16.44;54.62;100907.97;6235175;23;20004;-75
2023/04/30 09:49:55;;;;;;;0.00;0.00;;;;;;;16.22;54.66;100876.19;6239529;22;20327;-76
2023/04/30 09:52:20;;;;;;;0.00;0.00;;;;;;;16.28;53.79;100887.16;6236881;22;20086;-75
2023/04/30 09:54:48;;;;;;;0.00;0.00;;;;;;;16.05;54.26;100900.66;6239412;23;20000;-77
2023/04/30 09:57:25;;;;;;;;;;;;;;;;;;;;;
2023/04/30 09:59:52;;;;;;;0.00;0.00;;;;;;;16.00;53.51;100892.44;6234302;23;20100;-76
2023/04/30 10:02:22;;;;;;;0.00;0.00;;;;;;;15.69;53.98;100893.50;6213760;23;20062;-75
2023/04/30 10:04:55;;;;;;;0.00;0.00;;;;;;;15.64;53.77;100885.28;6234403;23;20091;-75
2023/04/30 10:07:30;;;;;;;0.00;0.00;;;;;;;15.84;54.15;100906.38;6241718;22;20038;-75
2023/04/30 10:10:09;;;;;;;0.00;0.00;;;;;;;15.94;53.99;100880.63;6264826;22;20016;-75
2023/04/30 10:12:47;;;;;;;0.00;0.00;;;;;;;16.06;53.01;100891.25;6268863;22;20007;-76
2023/04/30 10:15:21;;;;;;;0.00;0.00;;;;;;;16.27;53.32;100908.44;6263869;22;20011;-78
2023/04/30 10:17:49;;;;;;;;;;;;;;;16.26;53.03;100917.00;6269711;22;19995;-76
2023/04/30 10:20:19;;;;;;;0.00;0.00;;;;;;;16.16;52.74;100907.69;6263168;22;19952;-77
2023/04/30 10:22:47;;;;;;;0.00;0.00;;;;;;;16.08;53.49;100899.22;6219039;22;20057;-75
2023/04/30 10:25:13;;;;;;;0.00;0.00;;;;;;;16.09;53.62;100884.34;6263692;22;20082;-76
2023/04/30 10:27:39;;;;;;;0.00;0.00;;;;;;;16.29;53.47;100895.16;6241413;22;20465;-76
2023/04/30 10:30:06;;;;;;;0.00;0.00;;;;;;;16.62;52.27;100880.69;6216645;22;20011;-76
2023/04/30 10:32:45;;;;;;;0.00;0.00;;;;;;;16.75;50.98;100896.56;6239536;22;20015;-75
2023/04/30 10:35:36;;;;;;;0.00;0.00;;;;;;;16.67;50.59;100886.16;6240424;22;20334;-75
2023/04/30 10:38:20;;;;;;;0.00;0.00;;;;;;;16.96;50.22;100901.81;6267540;22;20019;-75
2023/04/30 10:40:51;;;;;;;0.00;0.00;;;;;;;17.25;50.54;100898.91;6264876;22;20040;-76
2023/04/30 10:43:20;;;;;;;0.00;0.00;;;;;;;17.37;49.17;100884.63;6218716;22;20330;-75
2023/04/30 10:45:49;;;;;;;0.00;0.00;;;;;;;17.39;49.52;100901.72;6212089;22;20008;-77
2023/04/30 10:48:23;;;;;;;0.00;0.00;;;;;;;16.95;50.47;100889.13;6220210;22;20700;-76
2023/04/30 10:50:57;;;;;;;0.00;0.00;;;;;;;16.41;51.92;100886.44;6216199;22;20011;-75
2023/04/30 10:53:29;;;;;;;0.00;0.00;;;;;;;16.53;52.89;100908.16;6243664;22;20003;-75
2023/04/30 10:56:07;;;;;;;0.00;0.00;;;;;;;16.35;53.05;100888.47;6267317;22;20018;-75
2023/04/30 10:58:34;;;;;;;0.00;0.00;;;;;;;16.40;53.51;100906.91;6269642;22;20079;-75
2023/04/30 11:01:11;;;;;;;0.00;0.00;;;;;;;16.52;53.60;100907.31;6267756;22;20434;-75
2023/04/30 11:03:42;;;;;;;0.00;0.00;;;;;;;16.50;52.44;100895.75;6272446;22;19999;-78
2023/04/30 11:06:25;;;;;;;0.00;0.00;;;;;;;16.49;53.00;100894.09;6241879;22;20030;-79
2023/04/30 11:09:56;;;;;;;0.00;0.00;;;;;;;15.85;54.79;100863.88;6217212;23;20013;-79
2023/04/30 11:13:11;;;;;;;;;;;;;;;;;;;;;
2023/04/30 11:15:44;;;;;;;;;;;;;;;;;;;;;
2023/04/30 11:18:30;;;;;;;;;;;;;;;;;;;;;
2023/04/30 11:20:58;;;;;;;0.00;0.00;;;;;;;15.24;59.62;100869.91;6242639;23;20083;-81
2023/04/30 11:23:55;;;;;;;;;;;;;;;;;;;;;
2023/04/30 11:26:31;;;;;;;;;;;;;;;;;;;;;
2023/04/30 11:29:21;;;;;;;;;;;;;;;;;;;;;
2023/04/30 11:32:18;;;;;;;;;;;;;;;;;;;;;
2023/04/30 11:35:14;;;;;;;0.00;0.00;;;;;;;17.78;51.46;100873.72;6238747;22;20051;-81
2023/04/30 11:37:45;;;;;;;0.00;0.00;;;;;;;17.94;50.50;100899.16;6232648;22;20986;-79
2023/04/30 11:40:14;;;;;;;0.00;0.00;;;;;;;17.91;51.25;100874.88;6237049;23;20007;-77
2023/04/30 11:42:51;;;;;;;0.00;0.00;;;;;;;17.89;51.15;100882.66;6228045;23;20032;-78
2023/04/30 11:49:17;;;;;;;0.00;0.00;;;;;;;18.20;50.96;100840.59;6161822;23;20005;-80
2023/04/30 11:52:34;;;;;;;0.00;0.00;;;;;;;18.43;49.14;100837.94;6176989;23;20009;-80
2023/04/30 11:56:01;;;;;;;0.00;0.00;;;;;;;18.35;49.33;100846.94;6177298;23;20832;-80
2023/04/30 11:58:46;;;;;;;;;;;;;;;;;;;;;
2023/04/30 12:01:50;;;;;;;0.00;0.00;;;;;;;17.82;49.04;100862.84;6236799;23;20091;-78
2023/04/30 12:04:33;;;;;;;0.00;0.00;;;;;;;17.52;49.71;100858.69;6234897;23;20194;-80
2023/04/30 12:06:59;;;;;;;0.00;0.00;;;;;;;17.74;49.93;100882.91;6242780;22;20394;-78
2023/04/30 12:09:24;;;;;;;0.00;0.00;;;;;;;17.44;49.36;100846.38;6260524;22;20119;-79